LOT2EF LKPR-EPWA
Flight info
| Callsign | LOT2EF |
|---|---|
| Flight time | 0h 57m |
| Altitude | 39000 |
| Route | ARTUP DCT LAGAR DCT MISKA DCT OKENO Q277 AGAVA |
| Aircraft | B738/M-SDE2E3FGHIRWXY/LB1 |
Departure
| Time | 2026-04-30 18:24 |
|---|---|
| Airport | Václav Havel Airport Prague (LKPR) |
Arrival
| Time | 2026-04-30 19:22 |
|---|---|
| Airport | Warsaw Chopin Airport (EPWA) |
| Time | Latitude | Longitude | Altitude | Speed | Heading |
|---|---|---|---|---|---|
| 2026-04-30 17:55 | 50.10590 | 14.26279 | 1173 ft | 0 kts | 35° |
| 2026-04-30 18:14 | 50.10560 | 14.26247 | 1169 ft | 4 kts | 24° |
| 2026-04-30 18:15 | 50.10509 | 14.26303 | 1171 ft | 4 kts | 304° |
| 2026-04-30 18:15 | 50.10498 | 14.26330 | 1168 ft | 0 kts | 304° |
| 2026-04-30 18:18 | 50.10504 | 14.26316 | 1168 ft | 5 kts | 304° |
| 2026-04-30 18:18 | 50.10527 | 14.26260 | 1168 ft | 7 kts | 298° |
| 2026-04-30 18:18 | 50.10539 | 14.26178 | 1173 ft | 9 kts | 270° |
| 2026-04-30 18:19 | 50.10526 | 14.26069 | 1172 ft | 11 kts | 258° |
| 2026-04-30 18:19 | 50.10481 | 14.26022 | 1175 ft | 11 kts | 141° |
| 2026-04-30 18:19 | 50.10436 | 14.26110 | 1173 ft | 11 kts | 126° |
| 2026-04-30 18:19 | 50.10386 | 14.26213 | 1173 ft | 14 kts | 127° |
| 2026-04-30 18:20 | 50.10323 | 14.26343 | 1176 ft | 16 kts | 127° |
| 2026-04-30 18:20 | 50.10253 | 14.26487 | 1176 ft | 17 kts | 127° |
| 2026-04-30 18:20 | 50.10182 | 14.26634 | 1177 ft | 17 kts | 127° |
| 2026-04-30 18:20 | 50.10114 | 14.26775 | 1182 ft | 16 kts | 127° |
| 2026-04-30 18:21 | 50.10043 | 14.26921 | 1191 ft | 19 kts | 127° |
| 2026-04-30 18:21 | 50.09962 | 14.27090 | 1197 ft | 20 kts | 127° |
| 2026-04-30 18:21 | 50.09881 | 14.27257 | 1201 ft | 19 kts | 127° |
| 2026-04-30 18:21 | 50.09793 | 14.27405 | 1203 ft | 18 kts | 135° |
| 2026-04-30 18:22 | 50.09703 | 14.27542 | 1205 ft | 18 kts | 135° |
| 2026-04-30 18:22 | 50.09551 | 14.27580 | 1212 ft | 12 kts | 217° |
| 2026-04-30 18:22 | 50.09476 | 14.27492 | 1210 ft | 15 kts | 217° |
| 2026-04-30 18:23 | 50.09426 | 14.27387 | 1208 ft | 11 kts | 289° |
| 2026-04-30 18:23 | 50.09483 | 14.27262 | 1205 ft | 29 kts | 306° |
| 2026-04-30 18:23 | 50.09753 | 14.26703 | 1206 ft | 98 kts | 307° |
| 2026-04-30 18:23 | 50.10295 | 14.25594 | 1186 ft | 157 kts | 310° |
| 2026-04-30 18:24 | 50.11694 | 14.22640 | 2494 ft | 171 kts | 309° |
| 2026-04-30 18:24 | 50.12449 | 14.21065 | 2830 ft | 195 kts | 311° |
| 2026-04-30 18:24 | 50.13325 | 14.19277 | 3071 ft | 219 kts | 311° |
| 2026-04-30 18:25 | 50.14287 | 14.17303 | 3319 ft | 236 kts | 310° |
| 2026-04-30 18:25 | 50.16375 | 14.12984 | 4061 ft | 264 kts | 309° |
| 2026-04-30 18:25 | 50.17481 | 14.10681 | 4874 ft | 266 kts | 309° |
| 2026-04-30 18:26 | 50.19718 | 14.06017 | 6380 ft | 274 kts | 309° |
| 2026-04-30 18:26 | 50.21019 | 14.03847 | 7041 ft | 275 kts | 332° |
| 2026-04-30 18:26 | 50.22813 | 14.03069 | 7755 ft | 267 kts | 6° |
| 2026-04-30 18:27 | 50.26044 | 14.05505 | 9245 ft | 264 kts | 47° |
| 2026-04-30 18:27 | 50.27231 | 14.07695 | 9990 ft | 266 kts | 51° |
| 2026-04-30 18:28 | 50.29572 | 14.12382 | 10890 ft | 291 kts | 52° |
| 2026-04-30 18:28 | 50.30860 | 14.14973 | 11061 ft | 312 kts | 52° |
| 2026-04-30 18:28 | 50.33680 | 14.20617 | 11634 ft | 341 kts | 52° |
| 2026-04-30 18:29 | 50.35151 | 14.23549 | 12269 ft | 343 kts | 52° |
| 2026-04-30 18:29 | 50.39620 | 14.32439 | 14359 ft | 351 kts | 51° |
| 2026-04-30 18:30 | 50.42144 | 14.37462 | 15487 ft | 353 kts | 51° |
| 2026-04-30 18:30 | 50.45695 | 14.44545 | 17071 ft | 357 kts | 51° |
| 2026-04-30 18:31 | 50.47234 | 14.47621 | 17727 ft | 360 kts | 51° |
| 2026-04-30 18:31 | 50.50350 | 14.53858 | 18992 ft | 364 kts | 51° |
| 2026-04-30 18:32 | 50.53483 | 14.60146 | 20195 ft | 366 kts | 51° |
| 2026-04-30 18:32 | 50.55056 | 14.63308 | 20751 ft | 368 kts | 51° |
| 2026-04-30 18:32 | 50.58224 | 14.69690 | 21819 ft | 372 kts | 51° |
| 2026-04-30 18:33 | 50.59818 | 14.72907 | 22356 ft | 373 kts | 51° |
| 2026-04-30 18:33 | 50.63029 | 14.79397 | 23364 ft | 377 kts | 51° |
| 2026-04-30 18:33 | 50.64621 | 14.82621 | 23878 ft | 378 kts | 50° |
| 2026-04-30 18:34 | 50.66239 | 14.85902 | 24320 ft | 380 kts | 51° |
| 2026-04-30 18:34 | 50.69106 | 14.92927 | 25120 ft | 386 kts | 62° |
| 2026-04-30 18:34 | 50.70092 | 14.96888 | 25523 ft | 389 kts | 66° |
| 2026-04-30 18:35 | 50.71029 | 15.00887 | 25898 ft | 390 kts | 66° |
| 2026-04-30 18:35 | 50.71975 | 15.04914 | 26264 ft | 392 kts | 66° |
| 2026-04-30 18:35 | 50.72930 | 15.08957 | 26631 ft | 394 kts | 65° |
| 2026-04-30 18:36 | 50.74857 | 15.17080 | 27501 ft | 393 kts | 65° |
| 2026-04-30 18:36 | 50.75814 | 15.21115 | 27926 ft | 393 kts | 65° |
| 2026-04-30 18:36 | 50.77741 | 15.29238 | 28517 ft | 397 kts | 65° |
| 2026-04-30 18:37 | 50.78709 | 15.33333 | 28829 ft | 398 kts | 65° |
| 2026-04-30 18:37 | 50.79659 | 15.37434 | 29263 ft | 397 kts | 67° |
| 2026-04-30 18:37 | 50.80505 | 15.41588 | 29690 ft | 397 kts | 68° |
| 2026-04-30 18:37 | 50.81310 | 15.45753 | 30157 ft | 395 kts | 68° |
| 2026-04-30 18:38 | 50.81828 | 15.48490 | 30505 ft | 393 kts | 68° |
| 2026-04-30 18:38 | 50.82606 | 15.52616 | 30930 ft | 390 kts | 68° |
| 2026-04-30 18:38 | 50.83382 | 15.56729 | 31248 ft | 390 kts | 68° |
| 2026-04-30 18:38 | 50.84163 | 15.60848 | 31543 ft | 391 kts | 68° |
| 2026-04-30 18:39 | 50.84946 | 15.64972 | 31882 ft | 390 kts | 68° |
| 2026-04-30 18:39 | 50.85724 | 15.69070 | 32296 ft | 388 kts | 68° |
| 2026-04-30 18:39 | 50.86495 | 15.73134 | 32783 ft | 383 kts | 68° |
| 2026-04-30 18:39 | 50.87505 | 15.78465 | 33281 ft | 381 kts | 68° |
| 2026-04-30 18:40 | 50.88018 | 15.81170 | 33452 ft | 382 kts | 68° |
| 2026-04-30 18:40 | 50.88782 | 15.85205 | 33711 ft | 382 kts | 68° |
| 2026-04-30 18:40 | 50.89544 | 15.89234 | 33987 ft | 382 kts | 68° |
| 2026-04-30 18:40 | 50.90296 | 15.93223 | 34282 ft | 381 kts | 68° |
| 2026-04-30 18:41 | 50.91055 | 15.97261 | 34539 ft | 382 kts | 68° |
| 2026-04-30 18:41 | 50.91812 | 16.01292 | 34670 ft | 384 kts | 68° |
| 2026-04-30 18:41 | 50.92575 | 16.05365 | 34797 ft | 386 kts | 68° |
| 2026-04-30 18:41 | 50.93339 | 16.09451 | 34955 ft | 387 kts | 68° |
| 2026-04-30 18:42 | 50.94106 | 16.13571 | 35097 ft | 389 kts | 68° |
| 2026-04-30 18:42 | 50.95641 | 16.21833 | 35419 ft | 392 kts | 68° |
| 2026-04-30 18:42 | 50.96406 | 16.25965 | 35438 ft | 394 kts | 68° |
| 2026-04-30 18:45 | 51.04622 | 16.70974 | 35410 ft | 385 kts | 68° |
| 2026-04-30 18:46 | 51.06095 | 16.79156 | 35455 ft | 386 kts | 68° |
| 2026-04-30 18:46 | 51.07570 | 16.87387 | 35418 ft | 387 kts | 68° |
| 2026-04-30 18:47 | 51.09041 | 16.95636 | 35394 ft | 388 kts | 68° |
| 2026-04-30 18:47 | 51.10505 | 17.03885 | 35408 ft | 388 kts | 69° |
| 2026-04-30 18:48 | 51.11966 | 17.12151 | 35397 ft | 388 kts | 69° |
| 2026-04-30 18:48 | 51.13421 | 17.20430 | 35404 ft | 388 kts | 69° |
| 2026-04-30 18:49 | 51.14867 | 17.28688 | 35411 ft | 387 kts | 69° |
| 2026-04-30 18:49 | 51.16308 | 17.36959 | 35439 ft | 387 kts | 69° |
| 2026-04-30 18:50 | 51.17736 | 17.45188 | 35412 ft | 387 kts | 69° |
| 2026-04-30 18:50 | 51.19163 | 17.53454 | 35407 ft | 387 kts | 69° |
| 2026-04-30 18:51 | 51.20519 | 17.61348 | 35392 ft | 386 kts | 69° |
| 2026-04-30 18:51 | 51.21929 | 17.69593 | 35399 ft | 385 kts | 69° |
| 2026-04-30 18:52 | 51.23330 | 17.77822 | 35401 ft | 384 kts | 69° |
| 2026-04-30 18:52 | 51.24724 | 17.86052 | 35404 ft | 384 kts | 69° |
| 2026-04-30 18:53 | 51.26112 | 17.94274 | 35428 ft | 384 kts | 69° |
| 2026-04-30 18:53 | 51.27483 | 18.02442 | 35407 ft | 385 kts | 69° |
| 2026-04-30 18:54 | 51.28857 | 18.10669 | 35398 ft | 384 kts | 69° |
| 2026-04-30 18:54 | 51.30222 | 18.18881 | 35397 ft | 384 kts | 69° |
| 2026-04-30 18:55 | 51.31567 | 18.27013 | 35402 ft | 384 kts | 69° |
| 2026-04-30 18:55 | 51.33591 | 18.39318 | 35396 ft | 384 kts | 69° |
| 2026-04-30 18:56 | 51.35617 | 18.51728 | 35403 ft | 385 kts | 69° |
| 2026-04-30 18:57 | 51.37640 | 18.64193 | 34595 ft | 389 kts | 69° |
| 2026-04-30 18:57 | 51.38311 | 18.68372 | 34142 ft | 382 kts | 69° |
| 2026-04-30 18:57 | 51.38928 | 18.72227 | 33639 ft | 378 kts | 69° |
| 2026-04-30 18:58 | 51.40140 | 18.79816 | 32846 ft | 366 kts | 69° |
| 2026-04-30 18:58 | 51.40764 | 18.83732 | 32402 ft | 362 kts | 69° |
| 2026-04-30 18:58 | 51.41382 | 18.87611 | 31980 ft | 357 kts | 69° |
| 2026-04-30 18:59 | 51.42589 | 18.95207 | 31143 ft | 348 kts | 69° |
| 2026-04-30 19:00 | 51.44298 | 19.06018 | 29901 ft | 335 kts | 69° |
| 2026-04-30 19:00 | 51.44862 | 19.09608 | 29479 ft | 330 kts | 68° |
| 2026-04-30 19:00 | 51.45960 | 19.16610 | 28671 ft | 322 kts | 68° |
| 2026-04-30 19:01 | 51.46979 | 19.23086 | 27906 ft | 335 kts | 69° |
| 2026-04-30 19:01 | 51.47537 | 19.26657 | 27468 ft | 333 kts | 69° |
| 2026-04-30 19:02 | 51.49172 | 19.33470 | 26139 ft | 330 kts | 58° |
| 2026-04-30 19:02 | 51.51116 | 19.39732 | 24742 ft | 340 kts | 59° |
| 2026-04-30 19:03 | 51.53198 | 19.46504 | 23638 ft | 338 kts | 59° |
| 2026-04-30 19:03 | 51.55298 | 19.53375 | 22015 ft | 347 kts | 59° |
| 2026-04-30 19:04 | 51.57353 | 19.60148 | 20873 ft | 344 kts | 60° |
| 2026-04-30 19:04 | 51.59362 | 19.66799 | 19653 ft | 346 kts | 60° |
| 2026-04-30 19:05 | 51.61427 | 19.73650 | 18516 ft | 346 kts | 60° |
| 2026-04-30 19:05 | 51.63490 | 19.80520 | 17281 ft | 343 kts | 60° |
| 2026-04-30 19:06 | 51.65575 | 19.87471 | 15778 ft | 350 kts | 61° |
| 2026-04-30 19:06 | 51.66626 | 19.90987 | 15240 ft | 347 kts | 61° |
| 2026-04-30 19:06 | 51.68676 | 19.97866 | 14267 ft | 340 kts | 61° |
| 2026-04-30 19:07 | 51.70633 | 20.04462 | 13621 ft | 315 kts | 61° |
| 2026-04-30 19:07 | 51.71561 | 20.07593 | 13245 ft | 303 kts | 61° |
| 2026-04-30 19:08 | 51.73356 | 20.13647 | 12521 ft | 297 kts | 61° |
| 2026-04-30 19:08 | 51.75122 | 20.19611 | 11806 ft | 292 kts | 61° |
| 2026-04-30 19:08 | 51.75993 | 20.22562 | 11455 ft | 290 kts | 61° |
| 2026-04-30 19:09 | 51.77706 | 20.28375 | 10874 ft | 286 kts | 61° |
| 2026-04-30 19:09 | 51.78543 | 20.31222 | 10758 ft | 282 kts | 61° |
| 2026-04-30 19:09 | 51.79370 | 20.34040 | 10618 ft | 273 kts | 61° |
| 2026-04-30 19:10 | 51.80953 | 20.39446 | 10385 ft | 262 kts | 61° |
| 2026-04-30 19:10 | 51.82539 | 20.44856 | 9808 ft | 270 kts | 61° |
| 2026-04-30 19:11 | 51.83343 | 20.47608 | 9510 ft | 270 kts | 61° |
| 2026-04-30 19:11 | 51.84943 | 20.53096 | 8926 ft | 269 kts | 61° |
| 2026-04-30 19:11 | 51.85738 | 20.55829 | 8642 ft | 268 kts | 61° |
| 2026-04-30 19:12 | 51.86528 | 20.58550 | 8359 ft | 266 kts | 61° |
| 2026-04-30 19:12 | 51.87313 | 20.61255 | 8067 ft | 264 kts | 61° |
| 2026-04-30 19:12 | 51.88089 | 20.63934 | 7792 ft | 260 kts | 61° |
| 2026-04-30 19:13 | 51.89575 | 20.69074 | 7277 ft | 247 kts | 61° |
| 2026-04-30 19:13 | 51.91017 | 20.74064 | 6569 ft | 243 kts | 60° |
| 2026-04-30 19:13 | 51.91729 | 20.76533 | 6227 ft | 240 kts | 61° |
| 2026-04-30 19:14 | 51.92430 | 20.78963 | 5973 ft | 236 kts | 61° |
| 2026-04-30 19:14 | 51.93122 | 20.81367 | 5737 ft | 234 kts | 61° |
| 2026-04-30 19:14 | 51.93806 | 20.83747 | 5495 ft | 232 kts | 61° |
| 2026-04-30 19:14 | 51.94481 | 20.86098 | 5297 ft | 226 kts | 61° |
| 2026-04-30 19:15 | 51.95135 | 20.88377 | 5035 ft | 220 kts | 61° |
| 2026-04-30 19:15 | 51.96402 | 20.92799 | 4548 ft | 214 kts | 61° |
| 2026-04-30 19:15 | 51.97020 | 20.94955 | 4370 ft | 216 kts | 61° |
| 2026-04-30 19:16 | 51.97587 | 20.96933 | 4180 ft | 217 kts | 61° |
| 2026-04-30 19:16 | 51.98164 | 20.98948 | 3997 ft | 219 kts | 61° |
| 2026-04-30 19:16 | 51.99384 | 21.03229 | 3588 ft | 213 kts | 61° |
| 2026-04-30 19:17 | 51.99992 | 21.05368 | 3390 ft | 205 kts | 61° |
| 2026-04-30 19:17 | 52.01606 | 21.08702 | 3089 ft | 184 kts | 8° |
| 2026-04-30 19:17 | 52.02834 | 21.08353 | 3107 ft | 183 kts | 334° |
| 2026-04-30 19:18 | 52.04449 | 21.07297 | 2879 ft | 191 kts | 339° |
| 2026-04-30 19:18 | 52.06374 | 21.05678 | 2439 ft | 179 kts | 332° |
| 2026-04-30 19:18 | 52.07434 | 21.04730 | 2207 ft | 168 kts | 332° |
| 2026-04-30 19:19 | 52.08429 | 21.03854 | 1982 ft | 157 kts | 332° |
| 2026-04-30 19:19 | 52.09367 | 21.03031 | 1812 ft | 151 kts | 332° |
| 2026-04-30 19:19 | 52.11217 | 21.01409 | 1368 ft | 150 kts | 332° |
| 2026-04-30 19:20 | 52.12133 | 21.00605 | 1170 ft | 151 kts | 332° |
| 2026-04-30 19:20 | 52.13071 | 20.99783 | 928 ft | 154 kts | 332° |
| 2026-04-30 19:20 | 52.14958 | 20.98127 | 500 ft | 155 kts | 332° |
| 2026-04-30 19:21 | 52.15906 | 20.97301 | 352 ft | 150 kts | 332° |
| 2026-04-30 19:21 | 52.17287 | 20.96086 | 334 ft | 61 kts | 332° |
| 2026-04-30 19:22 | 52.17576 | 20.96109 | 334 ft | 16 kts | 60° |
| 2026-04-30 19:22 | 52.17562 | 20.96248 | 338 ft | 0 kts | 141° |
| 2026-04-30 19:23 | 52.17490 | 20.96309 | 336 ft | 8 kts | 152° |
| 2026-04-30 19:24 | 52.17378 | 20.96408 | 334 ft | 9 kts | 152° |
| 2026-04-30 19:24 | 52.17325 | 20.96453 | 336 ft | 7 kts | 152° |
| 2026-04-30 19:24 | 52.17241 | 20.96527 | 336 ft | 7 kts | 151° |